createdAt,value
2018-07-22T00:01:32.102Z,100.00
2018-07-22T00:04:00.903Z,100.00
2018-07-22T00:06:29.701Z,100.00
2018-07-22T00:08:58.517Z,100.00
2018-07-22T00:11:27.359Z,100.00
2018-07-22T00:13:56.812Z,100.00
2018-07-22T00:16:26.253Z,100.00
2018-07-22T00:18:55.356Z,100.00
2018-07-22T00:21:24.309Z,100.00
2018-07-22T00:23:53.090Z,100.00
2018-07-22T00:26:21.912Z,100.00
2018-07-22T00:28:51.283Z,100.00
2018-07-22T00:31:20.183Z,100.00
2018-07-22T00:33:49.800Z,100.00
2018-07-22T00:36:19.192Z,100.00
2018-07-22T00:38:48.100Z,100.00
2018-07-22T00:41:16.804Z,100.00
2018-07-22T00:43:45.684Z,100.00
2018-07-22T00:46:14.512Z,100.00
2018-07-22T00:48:43.337Z,100.00
2018-07-22T00:51:12.329Z,100.00
2018-07-22T00:53:41.243Z,100.00
2018-07-22T00:56:09.979Z,100.00
2018-07-22T00:58:38.813Z,100.00
2018-07-22T01:01:08.538Z,100.00
2018-07-22T01:03:37.445Z,100.00
2018-07-22T01:06:06.402Z,100.00
2018-07-22T01:08:35.177Z,100.00
2018-07-22T01:11:04.129Z,100.00
2018-07-22T01:13:33.689Z,100.00
2018-07-22T01:16:02.313Z,100.00
2018-07-22T01:18:31.232Z,100.00
2018-07-22T01:21:00.067Z,100.00
2018-07-22T01:23:29.384Z,100.00
2018-07-22T01:25:58.123Z,100.00
2018-07-22T01:28:26.809Z,100.00
2018-07-22T01:30:55.654Z,100.00
2018-07-22T01:33:24.483Z,100.00
2018-07-22T01:35:53.532Z,100.00
2018-07-22T01:38:22.353Z,100.00
2018-07-22T01:40:51.062Z,100.00
2018-07-22T01:43:20.592Z,100.00
2018-07-22T01:45:49.398Z,100.00
2018-07-22T01:48:18.867Z,100.00
2018-07-22T01:50:47.552Z,100.00
2018-07-22T01:53:16.443Z,100.00
2018-07-22T01:55:45.294Z,100.00
2018-07-22T01:58:14.597Z,100.00
2018-07-22T02:00:43.473Z,100.00
2018-07-22T02:03:13.344Z,100.00
2018-07-22T02:05:42.293Z,100.00
2018-07-22T02:08:11.643Z,100.00
2018-07-22T02:10:40.643Z,100.00
2018-07-22T02:13:09.519Z,100.00
2018-07-22T02:15:38.782Z,100.00
2018-07-22T02:18:07.418Z,100.00
2018-07-22T02:20:36.242Z,100.00
2018-07-22T02:23:05.660Z,100.00
2018-07-22T02:25:35.346Z,100.00
2018-07-22T02:28:04.136Z,100.00
2018-07-22T02:30:32.739Z,100.00
2018-07-22T02:33:01.594Z,100.00
2018-07-22T02:35:30.833Z,100.00
2018-07-22T02:37:59.763Z,100.00
2018-07-22T02:40:28.495Z,100.00
2018-07-22T02:42:58.625Z,100.00
2018-07-22T02:45:27.981Z,100.00
2018-07-22T02:47:56.697Z,100.00
2018-07-22T02:50:27.172Z,100.00
2018-07-22T02:52:56.058Z,100.00
2018-07-22T02:55:25.649Z,100.00
2018-07-22T02:57:54.988Z,100.00
2018-07-22T03:00:23.677Z,100.00
2018-07-22T03:02:52.388Z,100.00
2018-07-22T03:05:21.495Z,100.00
2018-07-22T03:07:50.188Z,100.00
2018-07-22T03:10:19.149Z,100.00
2018-07-22T03:12:48.160Z,100.00
2018-07-22T03:15:17.253Z,100.00
2018-07-22T03:17:45.812Z,100.00
2018-07-22T03:20:14.870Z,100.00
2018-07-22T03:22:43.820Z,100.00
2018-07-22T03:25:13.502Z,100.00
2018-07-22T03:27:42.849Z,100.00
2018-07-22T03:30:11.612Z,100.00
2018-07-22T03:32:40.454Z,100.00
2018-07-22T03:35:09.373Z,100.00
2018-07-22T03:37:37.903Z,100.00
2018-07-22T03:40:06.839Z,100.00
2018-07-22T03:42:36.974Z,100.00
2018-07-22T03:45:05.914Z,100.00
2018-07-22T03:47:34.665Z,100.00
2018-07-22T03:50:03.715Z,100.00
2018-07-22T03:52:32.590Z,100.00
2018-07-22T03:55:02.132Z,100.00
2018-07-22T03:57:31.004Z,100.00
2018-07-22T03:59:59.628Z,100.00
2018-07-22T04:02:28.497Z,100.00
2018-07-22T04:04:57.344Z,100.00
2018-07-22T04:07:26.239Z,100.00
2018-07-22T04:09:54.927Z,100.00
2018-07-22T04:12:23.643Z,100.00
2018-07-22T04:14:52.609Z,100.00
2018-07-22T04:17:21.234Z,100.00
2018-07-22T04:19:50.148Z,100.00
2018-07-22T04:22:18.879Z,100.00
2018-07-22T04:24:47.504Z,100.00
2018-07-22T04:27:16.130Z,100.00
2018-07-22T04:29:44.884Z,100.00
2018-07-22T04:32:13.519Z,100.00
2018-07-22T04:34:42.245Z,100.00
2018-07-22T04:37:11.065Z,100.00
2018-07-22T04:39:40.218Z,100.00
2018-07-22T04:42:09.108Z,100.00
2018-07-22T04:44:37.750Z,100.00
2018-07-22T04:47:06.658Z,100.00
2018-07-22T04:49:36.265Z,100.00
2018-07-22T04:52:05.068Z,100.00
2018-07-22T04:54:35.723Z,100.00
2018-07-22T04:57:04.823Z,100.00
2018-07-22T04:59:34.150Z,100.00
2018-07-22T05:02:03.695Z,100.00
2018-07-22T05:04:32.488Z,100.00
2018-07-22T05:07:01.425Z,100.00
2018-07-22T05:09:30.113Z,100.00
2018-07-22T05:11:59.332Z,100.00
2018-07-22T05:14:28.130Z,100.00
2018-07-22T05:16:56.832Z,100.00
2018-07-22T05:19:25.540Z,100.00
2018-07-22T05:21:55.165Z,100.00
2018-07-22T05:24:24.361Z,99.56
2018-07-22T05:26:53.334Z,98.77
2018-07-22T05:29:22.008Z,97.57
2018-07-22T05:31:51.020Z,97.23
2018-07-22T05:34:19.937Z,96.34
2018-07-22T05:36:48.547Z,96.70
2018-07-22T05:39:17.871Z,94.92
2018-07-22T05:41:47.080Z,95.63
2018-07-22T05:44:15.878Z,95.16
2018-07-22T05:46:44.529Z,94.41
2018-07-22T05:49:13.279Z,93.82
2018-07-22T05:51:41.880Z,93.89
2018-07-22T05:54:10.561Z,93.24
2018-07-22T05:56:39.278Z,92.90
2018-07-22T05:59:08.499Z,92.05
2018-07-22T06:01:37.166Z,92.14
2018-07-22T06:04:06.041Z,91.29
2018-07-22T06:06:35.108Z,92.16
2018-07-22T06:09:04.671Z,92.51
2018-07-22T06:11:33.668Z,91.67
2018-07-22T06:14:02.348Z,91.86
2018-07-22T06:16:31.263Z,92.40
2018-07-22T06:19:00.103Z,92.19
2018-07-22T06:21:28.915Z,91.61
2018-07-22T06:23:58.061Z,91.63
2018-07-22T06:26:26.635Z,90.28
2018-07-22T06:28:55.305Z,91.07
2018-07-22T06:31:24.088Z,89.96
2018-07-22T06:33:52.844Z,90.12
2018-07-22T06:36:21.795Z,89.19
2018-07-22T06:38:50.640Z,87.11
2018-07-22T06:41:19.521Z,86.52
2018-07-22T06:43:48.401Z,86.03
2018-07-22T06:46:17.974Z,84.92
2018-07-22T06:48:47.101Z,81.89
2018-07-22T06:51:15.988Z,80.34
2018-07-22T06:53:44.722Z,80.23
2018-07-22T06:56:13.798Z,79.98
2018-07-22T06:58:42.801Z,78.78
2018-07-22T07:01:12.253Z,74.88
2018-07-22T07:03:41.653Z,74.32
2018-07-22T07:06:10.651Z,73.27
2018-07-22T07:08:40.316Z,68.72
2018-07-22T07:11:09.055Z,64.06
2018-07-22T07:13:37.776Z,63.60
2018-07-22T07:16:06.726Z,61.93
2018-07-22T07:18:35.549Z,60.57
2018-07-22T07:21:05.121Z,63.84
2018-07-22T07:23:34.049Z,64.60
2018-07-22T07:26:02.778Z,62.58
2018-07-22T07:28:31.502Z,59.10
2018-07-22T07:31:00.980Z,59.34
2018-07-22T07:33:29.831Z,58.20
2018-07-22T07:35:58.574Z,60.01
2018-07-22T07:38:27.220Z,60.28
2018-07-22T07:40:55.906Z,59.45
2018-07-22T07:43:24.773Z,59.77
2018-07-22T07:45:53.444Z,60.39
2018-07-22T07:48:22.696Z,59.72
2018-07-22T07:50:52.194Z,54.49
2018-07-22T07:53:20.990Z,51.40
2018-07-22T07:55:49.695Z,50.12
2018-07-22T07:58:18.384Z,46.32
2018-07-22T08:00:47.064Z,46.21
2018-07-22T08:03:15.746Z,48.51
2018-07-22T08:05:44.981Z,49.57
2018-07-22T08:08:13.647Z,49.38
2018-07-22T08:10:42.215Z,45.96
2018-07-22T08:13:10.986Z,43.59
2018-07-22T08:15:40.184Z,44.46
2018-07-22T08:18:09.130Z,46.50
2018-07-22T08:20:38.646Z,52.17
2018-07-22T08:23:07.941Z,53.50
2018-07-22T08:25:36.632Z,55.71
2018-07-22T08:28:05.250Z,56.45
2018-07-22T08:30:34.014Z,58.38
2018-07-22T08:33:02.806Z,60.75
2018-07-22T08:35:31.432Z,61.07
2018-07-22T08:38:00.337Z,62.76
2018-07-22T08:40:29.211Z,64.25
2018-07-22T08:42:58.003Z,64.60
2018-07-22T08:45:26.905Z,67.12
2018-07-22T08:47:55.607Z,68.72
2018-07-22T08:50:24.411Z,68.19
2018-07-22T08:52:53.192Z,70.33
2018-07-22T08:55:21.857Z,70.97
2018-07-22T08:57:51.157Z,71.10
2018-07-22T09:00:27.285Z,70.06
2018-07-22T09:02:56.238Z,70.91
2018-07-22T09:05:25.410Z,69.77
2018-07-22T09:07:54.081Z,69.54
2018-07-22T09:10:22.735Z,71.16
2018-07-22T09:12:51.462Z,71.51
2018-07-22T09:15:20.167Z,69.98
2018-07-22T09:17:48.932Z,71.37
2018-07-22T09:20:18.082Z,71.45
2018-07-22T09:22:47.337Z,71.62
2018-07-22T09:25:16.120Z,70.62
2018-07-22T09:27:45.482Z,71.23
2018-07-22T09:30:14.992Z,71.04
2018-07-22T09:32:43.868Z,69.88
2018-07-22T09:35:12.573Z,69.17
2018-07-22T09:37:41.436Z,68.37
2018-07-22T09:40:10.254Z,66.73
2018-07-22T09:42:39.079Z,65.43
2018-07-22T09:45:08.402Z,62.29
2018-07-22T09:47:37.131Z,60.00
2018-07-22T09:50:05.860Z,59.62
2018-07-22T09:52:34.457Z,55.75
2018-07-22T09:55:03.230Z,52.00
2018-07-22T09:57:32.558Z,50.50
2018-07-22T10:00:01.436Z,53.02
2018-07-22T10:02:30.043Z,55.16
2018-07-22T10:04:59.077Z,58.93
2018-07-22T10:07:27.755Z,60.02
2018-07-22T10:09:56.541Z,60.75
2018-07-22T10:12:25.220Z,62.04
2018-07-22T10:14:54.058Z,63.18
2018-07-22T10:17:22.731Z,63.98
2018-07-22T10:19:51.431Z,64.31
2018-07-22T10:22:20.135Z,66.61
2018-07-22T10:24:48.960Z,68.31
2018-07-22T10:27:18.346Z,65.69
2018-07-22T10:29:47.373Z,62.53
2018-07-22T10:32:16.722Z,64.42
2018-07-22T10:34:45.637Z,63.63
2018-07-22T10:37:14.244Z,62.52
2018-07-22T10:39:43.447Z,66.58
2018-07-22T10:42:12.107Z,66.61
2018-07-22T10:44:40.807Z,66.03
2018-07-22T10:47:10.278Z,66.79
2018-07-22T10:49:39.006Z,68.67
2018-07-22T10:52:07.737Z,70.02
2018-07-22T10:54:37.068Z,70.53
2018-07-22T10:57:06.110Z,70.91
2018-07-22T10:59:34.901Z,72.52
2018-07-22T11:02:03.511Z,72.00
2018-07-22T11:04:32.891Z,71.97
2018-07-22T11:07:01.975Z,72.20
2018-07-22T11:09:30.727Z,72.43
2018-07-22T11:11:59.737Z,70.19
2018-07-22T11:14:28.872Z,69.43
2018-07-22T11:16:57.925Z,67.64
2018-07-22T11:19:26.640Z,66.51
2018-07-22T11:21:55.297Z,68.10
2018-07-22T11:24:24.199Z,66.15
2018-07-22T11:26:53.845Z,64.18
2018-07-22T11:29:22.960Z,65.47
2018-07-22T11:31:52.001Z,64.52
2018-07-22T11:34:21.219Z,64.68
2018-07-22T11:36:50.201Z,65.64
2018-07-22T11:39:20.031Z,64.74
2018-07-22T11:41:49.181Z,65.64
2018-07-22T11:44:18.262Z,65.98
2018-07-22T11:46:48.094Z,66.63
2018-07-22T11:49:19.026Z,66.62
2018-07-22T11:51:48.027Z,66.03
2018-07-22T11:54:17.155Z,66.22
2018-07-22T11:56:47.888Z,66.94
2018-07-22T11:59:17.826Z,67.24
2018-07-22T12:01:46.739Z,66.43
2018-07-22T12:04:15.552Z,66.33
2018-07-22T12:06:45.090Z,65.42
2018-07-22T12:09:14.022Z,65.28
2018-07-22T12:11:42.852Z,65.24
2018-07-22T12:14:12.037Z,65.01
2018-07-22T12:16:41.182Z,64.70
2018-07-22T12:19:09.985Z,64.74
2018-07-22T12:21:38.630Z,65.14
2018-07-22T12:24:07.562Z,66.80
2018-07-22T12:26:37.585Z,67.57
2018-07-22T12:29:07.248Z,68.31
2018-07-22T12:31:36.230Z,69.02
2018-07-22T12:34:05.217Z,68.26
2018-07-22T12:36:35.165Z,68.87
2018-07-22T12:39:06.182Z,68.48
2018-07-22T12:41:35.401Z,68.81
2018-07-22T12:44:04.550Z,69.44
2018-07-22T12:46:33.891Z,69.98
2018-07-22T12:49:02.986Z,71.21
2018-07-22T12:51:32.056Z,71.70
2018-07-22T12:54:00.835Z,71.82
2018-07-22T12:56:29.722Z,73.14
2018-07-22T12:58:58.776Z,71.49
2018-07-22T13:01:27.931Z,71.35
2018-07-22T13:03:56.830Z,70.25
2018-07-22T13:06:26.057Z,67.58
2018-07-22T13:08:55.331Z,66.59
2018-07-22T13:11:23.991Z,65.82
2018-07-22T13:13:53.197Z,65.58
2018-07-22T13:16:22.493Z,66.51
2018-07-22T13:18:51.722Z,64.31
2018-07-22T13:21:20.903Z,63.68
2018-07-22T13:23:50.001Z,65.21
2018-07-22T13:26:19.780Z,64.90
2018-07-22T13:28:48.556Z,64.75
2018-07-22T13:31:17.798Z,62.94
2018-07-22T13:33:46.485Z,62.43
2018-07-22T13:36:15.353Z,62.96
2018-07-22T13:38:44.368Z,64.45
2018-07-22T13:41:13.482Z,67.29
2018-07-22T13:43:42.428Z,66.83
2018-07-22T13:46:12.477Z,66.93
2018-07-22T13:48:41.457Z,66.80
2018-07-22T13:51:10.493Z,66.29
2018-07-22T13:53:40.781Z,66.86
2018-07-22T13:56:09.596Z,68.94
2018-07-22T13:58:38.419Z,67.87
2018-07-22T14:01:07.585Z,66.91
2018-07-22T14:03:36.471Z,66.37
2018-07-22T14:06:05.448Z,66.26
2018-07-22T14:08:35.045Z,66.90
2018-07-22T14:11:04.246Z,68.21
2018-07-22T14:13:33.143Z,68.55
2018-07-22T14:16:03.001Z,69.80
2018-07-22T14:18:31.901Z,70.67
2018-07-22T14:21:01.166Z,72.68
2018-07-22T14:23:30.441Z,74.33
2018-07-22T14:25:59.433Z,76.20
2018-07-22T14:28:28.230Z,76.86
2018-07-22T14:30:57.150Z,78.45
2018-07-22T14:33:26.346Z,79.29
2018-07-22T14:35:55.140Z,80.29
2018-07-22T14:38:24.863Z,79.73
2018-07-22T14:40:54.132Z,80.38
2018-07-22T14:43:23.259Z,81.52
2018-07-22T14:45:53.219Z,81.79
2018-07-22T14:48:22.774Z,82.00
2018-07-22T14:50:51.896Z,81.73
2018-07-22T14:55:50.496Z,82.51
2018-07-22T14:58:19.548Z,81.52
2018-07-22T15:00:48.818Z,82.79
2018-07-22T15:03:17.986Z,83.62
2018-07-22T15:05:47.176Z,83.47
2018-07-22T15:08:16.923Z,83.87
2018-07-22T15:10:45.756Z,85.14
2018-07-22T15:13:14.906Z,86.17
2018-07-22T15:15:44.170Z,85.29
2018-07-22T15:18:13.097Z,85.44
2018-07-22T15:20:42.505Z,84.69
2018-07-22T15:23:11.360Z,85.11
2018-07-22T15:25:40.188Z,85.15
2018-07-22T15:28:08.847Z,84.33
2018-07-22T15:30:37.622Z,84.74
2018-07-22T15:33:06.709Z,84.98
2018-07-22T15:35:35.606Z,84.61
2018-07-22T15:38:04.466Z,83.19
2018-07-22T15:40:33.386Z,82.51
2018-07-22T15:43:02.112Z,82.62
2018-07-22T15:45:30.993Z,83.02
2018-07-22T15:48:00.935Z,84.39
2018-07-22T15:50:30.057Z,84.36
2018-07-22T15:52:59.150Z,82.72
2018-07-22T15:55:28.116Z,83.02
2018-07-22T15:57:57.047Z,82.98
2018-07-22T16:00:27.768Z,82.33
2018-07-22T16:02:57.177Z,81.96
2018-07-22T16:05:25.923Z,83.08
2018-07-22T16:07:54.763Z,82.97
2018-07-22T16:10:23.988Z,84.54
2018-07-22T16:12:53.098Z,84.48
2018-07-22T16:15:23.462Z,85.84
2018-07-22T16:17:52.717Z,85.45
2018-07-22T16:20:21.555Z,84.82
2018-07-22T16:22:51.272Z,84.62
2018-07-22T16:25:20.276Z,85.81
2018-07-22T16:27:49.441Z,85.29
2018-07-22T16:30:18.865Z,85.60
2018-07-22T16:32:47.857Z,86.69
2018-07-22T16:35:16.620Z,87.46
2018-07-22T16:37:45.556Z,87.49
2018-07-22T16:40:14.394Z,87.50
2018-07-22T16:42:43.210Z,87.59
2018-07-22T16:45:12.289Z,89.00
2018-07-22T16:47:41.062Z,89.12
2018-07-22T16:50:09.777Z,89.66
2018-07-22T16:52:38.816Z,89.20
2018-07-22T16:55:08.059Z,89.26
2018-07-22T16:57:37.369Z,89.01
2018-07-22T17:00:06.647Z,89.65
2018-07-22T17:02:35.841Z,89.36
2018-07-22T17:05:04.916Z,89.23
2018-07-22T17:07:34.528Z,88.52
2018-07-22T17:10:03.421Z,89.36
2018-07-22T17:12:32.622Z,89.07
2018-07-22T17:15:02.052Z,89.47
2018-07-22T17:17:30.730Z,89.80
2018-07-22T17:19:59.612Z,90.61
2018-07-22T17:22:28.420Z,90.71
2018-07-22T17:24:57.936Z,90.93
2018-07-22T17:27:26.983Z,90.66
2018-07-22T17:29:56.445Z,91.29
2018-07-22T17:32:26.507Z,91.03
2018-07-22T17:34:55.221Z,90.94
2018-07-22T17:37:24.191Z,90.45
2018-07-22T17:39:53.182Z,90.76
2018-07-22T17:42:22.232Z,90.90
2018-07-22T17:44:51.178Z,90.71
2018-07-22T17:47:20.756Z,90.10
2018-07-22T17:49:49.687Z,90.88
2018-07-22T17:52:18.447Z,91.16
2018-07-22T17:54:47.344Z,90.97
2018-07-22T17:57:16.213Z,91.48
2018-07-22T17:59:44.924Z,91.67
2018-07-22T18:02:13.823Z,91.54
2018-07-22T18:04:42.735Z,90.77
2018-07-22T18:07:11.603Z,90.29
2018-07-22T18:09:40.548Z,90.29
2018-07-22T18:12:09.320Z,90.54
2018-07-22T18:14:38.167Z,90.97
2018-07-22T18:17:07.490Z,90.76
2018-07-22T18:19:36.688Z,91.33
2018-07-22T18:22:06.538Z,92.21
2018-07-22T18:24:36.522Z,92.68
2018-07-22T18:27:05.503Z,93.54
2018-07-22T18:29:35.032Z,92.96
2018-07-22T18:32:04.334Z,92.38
2018-07-22T18:34:33.449Z,92.26
2018-07-22T18:37:02.648Z,92.61
2018-07-22T18:39:31.737Z,92.54
2018-07-22T18:42:01.049Z,93.44
2018-07-22T18:44:30.280Z,93.71
2018-07-22T18:46:59.497Z,93.41
2018-07-22T18:49:28.614Z,93.68
2018-07-22T18:51:57.879Z,93.89
2018-07-22T18:54:27.312Z,94.60
2018-07-22T18:56:57.492Z,94.85
2018-07-22T18:59:26.672Z,94.68
2018-07-22T19:01:56.164Z,94.38
2018-07-22T19:04:25.385Z,93.61
2018-07-22T19:06:54.579Z,93.87
2018-07-22T19:09:23.883Z,94.26
2018-07-22T19:11:53.389Z,94.26
2018-07-22T19:14:22.940Z,94.01
2018-07-22T19:16:52.384Z,94.33
2018-07-22T19:19:22.104Z,94.82
2018-07-22T19:21:51.623Z,95.13
2018-07-22T19:24:20.780Z,96.05
2018-07-22T19:26:49.897Z,96.54
2018-07-22T19:29:19.118Z,96.66
2018-07-22T19:31:48.845Z,97.19
2018-07-22T19:34:18.789Z,97.30
2018-07-22T19:36:49.555Z,96.66
2018-07-22T19:39:18.829Z,96.27
2018-07-22T19:41:48.048Z,96.18
2018-07-22T19:44:17.444Z,95.74
2018-07-22T19:46:46.753Z,96.52
2018-07-22T19:49:16.124Z,97.36
2018-07-22T19:51:45.515Z,97.21
2018-07-22T19:54:14.962Z,97.15
2018-07-22T19:56:44.133Z,96.80
2018-07-22T19:59:13.248Z,96.99
2018-07-22T20:01:43.687Z,96.69
2018-07-22T20:04:14.209Z,97.14
2018-07-22T20:06:44.299Z,96.94
2018-07-22T20:09:14.447Z,97.65
2018-07-22T20:11:44.092Z,97.44
2018-07-22T20:14:13.436Z,96.99
2018-07-22T20:16:42.758Z,96.68
2018-07-22T20:19:12.567Z,97.01
2018-07-22T20:21:41.769Z,97.57
2018-07-22T20:24:11.017Z,98.03
2018-07-22T20:26:40.883Z,98.46
2018-07-22T20:29:10.114Z,98.37
2018-07-22T20:31:39.218Z,98.58
2018-07-22T20:34:08.351Z,97.55
2018-07-22T20:36:37.468Z,97.70
2018-07-22T20:39:10.272Z,98.08
2018-07-22T20:41:40.543Z,97.52
2018-07-22T20:44:09.637Z,97.55
2018-07-22T20:46:38.659Z,97.20
2018-07-22T20:49:07.457Z,97.44
2018-07-22T20:51:36.287Z,97.26
2018-07-22T20:54:05.214Z,97.22
2018-07-22T20:56:34.141Z,97.15
2018-07-22T20:59:03.019Z,98.15
2018-07-22T21:01:31.980Z,98.43
2018-07-22T21:04:00.928Z,98.34
2018-07-22T21:06:30.267Z,98.49
2018-07-22T21:08:59.322Z,98.93
2018-07-22T21:11:38.980Z,98.54
2018-07-22T21:14:07.803Z,99.05
2018-07-22T21:16:36.797Z,98.57
2018-07-22T21:19:06.096Z,98.97
2018-07-22T21:21:35.394Z,98.90
2018-07-22T21:24:04.230Z,98.95
2018-07-22T21:26:32.874Z,99.08
2018-07-22T21:29:01.671Z,98.87
2018-07-22T21:31:30.496Z,98.85
2018-07-22T21:33:59.281Z,98.87
2018-07-22T21:36:28.730Z,99.03
2018-07-22T21:38:57.360Z,99.07
2018-07-22T21:41:26.072Z,99.80
2018-07-22T21:43:55.501Z,100.00
2018-07-22T21:46:24.483Z,100.00
2018-07-22T21:48:53.770Z,100.00
2018-07-22T21:51:22.511Z,100.00
2018-07-22T21:53:51.193Z,100.00
2018-07-22T21:56:20.006Z,100.00
2018-07-22T21:58:48.671Z,100.00
2018-07-22T22:04:32.085Z,100.00
2018-07-22T22:07:00.870Z,100.00
2018-07-22T22:09:29.686Z,100.00
2018-07-22T22:11:58.716Z,100.00
2018-07-22T22:14:27.928Z,100.00
2018-07-22T22:16:57.282Z,100.00
2018-07-22T22:19:26.226Z,100.00
2018-07-22T22:21:55.106Z,100.00
2018-07-22T22:24:23.995Z,100.00
2018-07-22T22:26:54.223Z,100.00
2018-07-22T22:29:23.169Z,100.00
2018-07-22T22:31:52.069Z,100.00
2018-07-22T22:34:20.705Z,100.00
2018-07-22T22:36:49.684Z,100.00
2018-07-22T22:39:19.181Z,100.00
2018-07-22T22:41:48.091Z,100.00
2018-07-22T22:44:16.795Z,100.00
2018-07-22T22:46:45.460Z,100.00
2018-07-22T22:49:14.113Z,100.00
2018-07-22T22:51:42.874Z,100.00
2018-07-22T22:54:11.681Z,100.00
2018-07-22T22:56:40.473Z,100.00
2018-07-22T22:59:16.965Z,100.00
2018-07-22T23:01:46.069Z,100.00
2018-07-22T23:04:15.354Z,100.00
2018-07-22T23:06:44.159Z,100.00
2018-07-22T23:09:14.590Z,100.00
2018-07-22T23:11:43.904Z,100.00
2018-07-22T23:14:12.789Z,100.00
2018-07-22T23:16:41.699Z,100.00
2018-07-22T23:19:10.533Z,100.00
2018-07-22T23:21:39.423Z,100.00
2018-07-22T23:24:08.189Z,100.00
2018-07-22T23:26:37.599Z,100.00
2018-07-22T23:29:06.155Z,100.00
2018-07-22T23:31:35.740Z,100.00
2018-07-22T23:34:04.381Z,100.00
2018-07-22T23:36:33.219Z,100.00
2018-07-22T23:39:02.017Z,100.00
2018-07-22T23:41:30.686Z,100.00
2018-07-22T23:43:59.598Z,100.00
2018-07-22T23:46:29.199Z,100.00
2018-07-22T23:48:57.930Z,100.00
2018-07-22T23:51:26.531Z,100.00
2018-07-22T23:53:55.514Z,100.00
2018-07-22T23:56:24.213Z,100.00
2018-07-22T23:58:52.870Z,100.00
